createdAt,value
2019-06-08T00:01:44.530Z,70.50
2019-06-08T00:04:13.019Z,70.80
2019-06-08T00:06:41.408Z,71.20
2019-06-08T00:09:09.924Z,71.40
2019-06-08T00:11:38.437Z,71.60
2019-06-08T00:14:06.817Z,71.60
2019-06-08T00:16:35.337Z,71.60
2019-06-08T00:19:03.735Z,71.70
2019-06-08T00:21:32.169Z,71.80
2019-06-08T00:24:00.579Z,72.80
2019-06-08T00:26:29.017Z,72.10
2019-06-08T00:28:57.488Z,72.20
2019-06-08T00:31:25.869Z,71.40
2019-06-08T00:33:54.288Z,72.50
2019-06-08T00:36:23.076Z,72.20
2019-06-08T00:38:51.590Z,72.80
2019-06-08T00:41:20.721Z,72.80
2019-06-08T00:43:51.426Z,72.70
2019-06-08T00:46:19.810Z,72.90
2019-06-08T00:48:48.299Z,73.20
2019-06-08T00:51:16.791Z,73.00
2019-06-08T00:53:45.185Z,73.10
2019-06-08T00:56:13.575Z,73.00
2019-06-08T00:58:41.947Z,73.30
2019-06-08T01:01:10.347Z,73.20
2019-06-08T01:03:38.765Z,73.40
2019-06-08T01:06:07.149Z,73.40
2019-06-08T01:08:35.535Z,73.40
2019-06-08T01:11:03.959Z,73.60
2019-06-08T01:13:32.347Z,73.50
2019-06-08T01:16:00.723Z,73.60
2019-06-08T01:18:29.381Z,73.60
2019-06-08T01:20:57.811Z,73.30
2019-06-08T01:23:26.217Z,73.30
2019-06-08T01:25:54.621Z,73.40
2019-06-08T01:28:23.956Z,73.50
2019-06-08T01:30:52.431Z,74.00
2019-06-08T01:33:20.782Z,73.90
2019-06-08T01:35:49.193Z,74.00
2019-06-08T01:38:17.589Z,73.80
2019-06-08T01:40:45.965Z,74.10
2019-06-08T01:43:14.397Z,74.30
2019-06-08T01:45:42.772Z,74.10
2019-06-08T01:48:19.950Z,74.20
2019-06-08T01:50:41.217Z,74.50
2019-06-08T01:53:09.600Z,74.40
2019-06-08T01:55:37.983Z,74.60
2019-06-08T01:58:06.379Z,74.60
2019-06-08T02:00:39.289Z,74.60
2019-06-08T02:03:04.832Z,74.80
2019-06-08T02:05:34.457Z,74.80
2019-06-08T02:08:02.917Z,74.80
2019-06-08T02:10:31.311Z,75.10
2019-06-08T02:12:59.693Z,75.50
2019-06-08T02:15:29.716Z,75.40
2019-06-08T02:17:58.096Z,75.50
2019-06-08T02:20:26.498Z,75.80
2019-06-08T02:22:54.896Z,75.90
2019-06-08T02:25:29.247Z,76.10
2019-06-08T02:27:57.832Z,76.30
2019-06-08T02:30:30.510Z,76.30
2019-06-08T02:32:59.424Z,76.50
2019-06-08T02:35:28.004Z,76.60
2019-06-08T02:37:56.386Z,76.60
2019-06-08T02:40:24.785Z,76.60
2019-06-08T02:42:53.171Z,76.70
2019-06-08T02:45:21.577Z,76.90
2019-06-08T02:47:50.003Z,76.80
2019-06-08T02:50:21.636Z,77.00
2019-06-08T02:52:50.021Z,77.00
2019-06-08T02:55:18.460Z,77.00
2019-06-08T02:57:46.845Z,77.10
2019-06-08T03:00:15.238Z,77.40
2019-06-08T03:02:43.823Z,77.10
2019-06-08T03:05:12.213Z,77.00
2019-06-08T03:07:42.438Z,77.30
2019-06-08T03:10:12.145Z,77.20
2019-06-08T03:12:42.463Z,77.10
2019-06-08T03:15:10.540Z,77.10
2019-06-08T03:17:40.024Z,77.00
2019-06-08T03:20:08.968Z,77.10
2019-06-08T03:22:40.831Z,77.20
2019-06-08T03:25:07.414Z,77.10
2019-06-08T03:27:37.306Z,77.00
2019-06-08T03:30:16.018Z,77.20
2019-06-08T03:32:44.687Z,77.00
2019-06-08T03:35:07.221Z,77.20
2019-06-08T03:37:35.802Z,77.50
2019-06-08T03:40:05.056Z,77.20
2019-06-08T03:42:33.442Z,77.40
2019-06-08T03:45:01.844Z,77.50
2019-06-08T03:47:30.222Z,77.00
2019-06-08T03:49:58.620Z,76.70
2019-06-08T03:52:27.028Z,76.80
2019-06-08T03:54:55.407Z,76.60
2019-06-08T03:57:23.817Z,76.40
2019-06-08T03:59:52.222Z,76.40
2019-06-08T04:02:20.620Z,76.40
2019-06-08T04:04:50.015Z,76.20
2019-06-08T04:07:18.559Z,76.20
2019-06-08T04:09:46.940Z,76.40
2019-06-08T04:12:15.374Z,76.70
2019-06-08T04:14:44.548Z,76.00
2019-06-08T04:17:13.780Z,75.90
2019-06-08T04:20:04.395Z,75.90
2019-06-08T04:22:12.220Z,75.50
2019-06-08T04:24:42.320Z,75.40
2019-06-08T04:27:10.652Z,75.00
2019-06-08T04:29:39.605Z,75.60
2019-06-08T04:32:08.055Z,74.50
2019-06-08T04:34:36.442Z,74.40
2019-06-08T04:37:04.841Z,74.20
2019-06-08T04:39:33.265Z,73.80
2019-06-08T04:42:01.661Z,73.40
2019-06-08T04:44:30.028Z,73.40
2019-06-08T04:46:58.434Z,73.00
2019-06-08T04:49:26.814Z,72.80
2019-06-08T04:51:55.192Z,72.60
2019-06-08T04:54:23.595Z,72.00
2019-06-08T04:56:51.971Z,71.90
2019-06-08T04:59:20.377Z,72.00
2019-06-08T05:01:49.283Z,71.40
2019-06-08T05:04:17.865Z,71.80
2019-06-08T05:06:47.219Z,71.60
2019-06-08T05:09:15.636Z,71.50
2019-06-08T05:11:45.269Z,71.10
2019-06-08T05:14:13.774Z,70.90
2019-06-08T05:16:43.158Z,70.60
2019-06-08T05:19:12.415Z,70.20
2019-06-08T05:21:41.601Z,69.70
2019-06-08T05:24:10.076Z,69.10
2019-06-08T05:26:39.250Z,69.00
2019-06-08T05:29:07.815Z,69.00
2019-06-08T05:31:36.276Z,68.80
2019-06-08T05:34:04.722Z,67.90
2019-06-08T05:36:33.114Z,67.00
2019-06-08T05:39:01.558Z,66.80
2019-06-08T05:41:29.999Z,67.00
2019-06-08T05:43:58.388Z,66.80
2019-06-08T05:46:26.783Z,66.60
2019-06-08T05:48:55.187Z,66.60
2019-06-08T05:51:23.583Z,66.50
2019-06-08T05:53:52.003Z,66.60
2019-06-08T05:56:20.402Z,67.00
2019-06-08T05:58:50.164Z,66.90
2019-06-08T06:01:18.812Z,66.90
2019-06-08T06:03:48.622Z,67.20
2019-06-08T06:06:17.071Z,67.60
2019-06-08T06:08:46.586Z,67.30
2019-06-08T06:11:14.981Z,67.20
2019-06-08T06:13:43.377Z,67.00
2019-06-08T06:16:11.827Z,66.80
2019-06-08T06:18:40.950Z,66.60
2019-06-08T06:21:11.615Z,66.20
2019-06-08T06:23:39.543Z,66.10
2019-06-08T06:26:07.925Z,65.80
2019-06-08T06:28:36.307Z,65.80
2019-06-08T06:31:04.752Z,65.50
2019-06-08T06:33:33.137Z,64.80
2019-06-08T06:36:01.511Z,65.00
2019-06-08T06:38:29.933Z,65.20
2019-06-08T06:40:58.355Z,64.80
2019-06-08T06:43:26.721Z,63.80
2019-06-08T06:45:55.128Z,64.10
2019-06-08T06:48:23.806Z,64.00
2019-06-08T06:50:52.579Z,64.30
2019-06-08T06:53:21.009Z,64.40
2019-06-08T06:55:49.390Z,64.00
2019-06-08T06:58:17.840Z,63.20
2019-06-08T07:00:47.430Z,62.60
2019-06-08T07:03:15.935Z,62.70
2019-06-08T07:05:44.316Z,62.70
2019-06-08T07:08:12.749Z,62.70
2019-06-08T07:10:41.130Z,62.40
2019-06-08T07:13:09.523Z,62.40
2019-06-08T07:15:41.863Z,61.60
2019-06-08T07:18:07.976Z,62.10
2019-06-08T07:20:36.366Z,62.50
2019-06-08T07:23:06.011Z,62.20
2019-06-08T07:25:34.395Z,62.30
2019-06-08T07:28:02.771Z,61.50
2019-06-08T07:30:31.191Z,61.60
2019-06-08T07:32:59.589Z,62.20
2019-06-08T07:35:28.000Z,62.60
2019-06-08T07:37:56.387Z,62.70
2019-06-08T07:40:24.791Z,62.10
2019-06-08T07:42:54.861Z,60.70
2019-06-08T07:45:23.217Z,60.80
2019-06-08T07:47:52.033Z,60.20
2019-06-08T07:50:20.365Z,60.80
2019-06-08T07:52:49.919Z,60.50
2019-06-08T07:55:18.847Z,61.00
2019-06-08T07:57:48.579Z,59.90
2019-06-08T08:00:17.273Z,60.30
2019-06-08T08:02:45.695Z,60.00
2019-06-08T08:05:14.080Z,60.20
2019-06-08T08:07:42.479Z,60.30
2019-06-08T08:10:10.959Z,59.80
2019-06-08T08:12:39.331Z,58.70
2019-06-08T08:15:07.708Z,58.70
2019-06-08T08:17:36.096Z,58.50
2019-06-08T08:20:07.525Z,58.00
2019-06-08T08:22:38.003Z,58.00
2019-06-08T08:25:08.199Z,57.90
2019-06-08T08:27:37.536Z,57.90
2019-06-08T08:30:08.373Z,57.20
2019-06-08T08:32:38.038Z,57.60
2019-06-08T08:35:08.758Z,56.20
2019-06-08T08:37:38.086Z,55.60
2019-06-08T08:40:08.510Z,56.30
2019-06-08T08:42:38.756Z,56.90
2019-06-08T08:45:08.629Z,56.80
2019-06-08T08:47:38.711Z,56.30
2019-06-08T08:50:07.489Z,56.50
2019-06-08T08:52:39.873Z,57.10
2019-06-08T08:55:08.105Z,57.20
2019-06-08T08:57:38.535Z,56.10
2019-06-08T09:00:08.514Z,56.20
2019-06-08T09:02:37.453Z,54.40
2019-06-08T09:05:08.358Z,55.20
2019-06-08T09:07:38.253Z,54.50
2019-06-08T09:10:08.570Z,54.20
2019-06-08T09:12:37.702Z,54.40
2019-06-08T09:15:08.553Z,54.00
2019-06-08T09:17:38.826Z,54.60
2019-06-08T09:20:08.874Z,54.20
2019-06-08T09:22:50.170Z,52.60
2019-06-08T09:25:08.774Z,53.00
2019-06-08T09:27:38.278Z,53.20
2019-06-08T09:30:08.351Z,53.50
2019-06-08T09:32:38.186Z,53.00
2019-06-08T09:35:09.103Z,53.20
2019-06-08T09:37:37.588Z,52.80
2019-06-08T09:40:06.072Z,53.50
2019-06-08T09:42:34.522Z,54.00
2019-06-08T09:45:05.515Z,53.30
2019-06-08T09:47:33.812Z,53.80
2019-06-08T09:50:04.488Z,54.40
2019-06-08T09:52:32.338Z,53.30
2019-06-08T09:55:03.938Z,53.10
2019-06-08T09:57:30.781Z,52.90
2019-06-08T10:00:02.173Z,53.90
2019-06-08T10:02:29.225Z,52.50
2019-06-08T10:05:00.720Z,51.20
2019-06-08T10:07:28.609Z,49.60
2019-06-08T10:10:00.345Z,49.90
2019-06-08T10:12:28.213Z,49.30
2019-06-08T10:14:56.765Z,49.00
2019-06-08T10:17:27.760Z,49.00
2019-06-08T10:19:57.910Z,48.70
2019-06-08T10:22:25.255Z,47.90
2019-06-08T10:24:55.316Z,48.40
2019-06-08T10:27:23.682Z,48.80
2019-06-08T10:29:52.094Z,49.10
2019-06-08T10:32:22.295Z,49.60
2019-06-08T10:34:50.666Z,50.00
2019-06-08T10:37:19.101Z,48.30
2019-06-08T10:39:47.887Z,49.10
2019-06-08T10:42:18.028Z,49.30
2019-06-08T10:44:46.613Z,50.30
2019-06-08T10:47:14.982Z,50.10
2019-06-08T10:49:43.367Z,50.00
2019-06-08T10:52:12.295Z,50.50
2019-06-08T10:54:40.944Z,50.50
2019-06-08T10:57:09.929Z,51.40
2019-06-08T10:59:40.269Z,51.00
2019-06-08T11:02:13.476Z,51.10
2019-06-08T11:04:39.192Z,51.50
2019-06-08T11:07:15.335Z,51.80
2019-06-08T11:09:38.650Z,52.90
2019-06-08T11:12:11.186Z,54.40
2019-06-08T11:14:38.247Z,56.10
2019-06-08T11:17:09.389Z,57.90
2019-06-08T11:19:37.649Z,57.20
2019-06-08T11:22:12.159Z,57.60
2019-06-08T11:24:38.616Z,58.40
2019-06-08T11:27:08.238Z,61.10
2019-06-08T11:29:38.397Z,65.20
2019-06-08T11:32:09.316Z,65.90
2019-06-08T11:34:37.648Z,65.70
2019-06-08T11:37:09.365Z,66.00
2019-06-08T11:39:38.202Z,67.00
2019-06-08T11:42:09.853Z,69.60
2019-06-08T11:44:38.779Z,67.80
2019-06-08T11:47:09.742Z,66.30
2019-06-08T11:49:36.902Z,67.30
2019-06-08T11:52:06.714Z,67.40
2019-06-08T11:54:40.036Z,66.90
2019-06-08T11:57:05.430Z,66.90
2019-06-08T11:59:33.827Z,67.90
2019-06-08T12:02:03.444Z,68.80
2019-06-08T12:04:31.944Z,67.40
2019-06-08T12:07:00.320Z,67.40
2019-06-08T12:09:28.801Z,69.20
2019-06-08T12:11:58.081Z,68.70
2019-06-08T12:14:26.645Z,67.60
2019-06-08T12:16:55.075Z,68.40
2019-06-08T12:19:23.459Z,68.50
2019-06-08T12:21:51.847Z,67.40
2019-06-08T12:24:20.541Z,67.60
2019-06-08T12:26:54.808Z,69.20
2019-06-08T12:29:19.086Z,68.80
2019-06-08T12:31:47.751Z,65.80
2019-06-08T12:34:18.302Z,64.80
2019-06-08T12:36:48.097Z,64.50
2019-06-08T12:39:19.055Z,64.60
2019-06-08T12:41:47.895Z,65.30
2019-06-08T12:44:17.397Z,63.90
2019-06-08T12:46:48.462Z,62.70
2019-06-08T12:49:18.665Z,62.60
2019-06-08T12:51:50.690Z,63.20
2019-06-08T12:54:18.954Z,61.60
2019-06-08T12:56:47.971Z,59.30
2019-06-08T12:59:20.853Z,60.20
2019-06-08T13:01:48.435Z,55.30
2019-06-08T13:04:21.360Z,57.00
2019-06-08T13:06:48.339Z,57.30
2019-06-08T13:09:18.883Z,56.00
2019-06-08T13:11:50.481Z,53.00
2019-06-08T13:14:19.024Z,54.00
2019-06-08T13:16:48.931Z,51.90
2019-06-08T13:19:17.380Z,51.40
2019-06-08T13:21:45.877Z,52.10
2019-06-08T13:24:15.102Z,48.80
2019-06-08T13:26:43.683Z,49.20
2019-06-08T13:29:12.549Z,47.00
2019-06-08T13:31:42.127Z,46.70
2019-06-08T13:34:12.773Z,47.50
2019-06-08T13:36:42.318Z,46.40
2019-06-08T13:39:11.605Z,45.30
2019-06-08T13:41:40.486Z,42.00
2019-06-08T13:44:08.908Z,42.20
2019-06-08T13:46:37.946Z,39.70
2019-06-08T13:49:08.285Z,37.70
2019-06-08T13:51:38.435Z,35.90
2019-06-08T13:54:08.342Z,33.80
2019-06-08T13:56:38.484Z,34.20
2019-06-08T13:59:07.953Z,35.90
2019-06-08T14:01:37.817Z,37.00
2019-06-08T14:04:08.787Z,40.20
2019-06-08T14:06:36.437Z,42.00
2019-06-08T14:09:08.309Z,43.50
2019-06-08T14:11:36.552Z,44.40
2019-06-08T14:14:04.984Z,45.00
2019-06-08T14:16:33.315Z,47.00
2019-06-08T14:19:01.732Z,47.20
2019-06-08T14:21:38.781Z,48.70
2019-06-08T14:24:00.141Z,49.20
2019-06-08T14:26:29.632Z,49.50
2019-06-08T14:29:00.779Z,50.20
2019-06-08T14:31:31.545Z,51.80
2019-06-08T14:33:58.275Z,52.80
2019-06-08T14:36:28.668Z,53.70
2019-06-08T14:39:02.020Z,54.50
2019-06-08T14:41:29.293Z,55.30
2019-06-08T14:43:58.610Z,56.30
2019-06-08T14:46:28.757Z,56.70
2019-06-08T14:48:58.432Z,57.70
2019-06-08T14:51:30.143Z,59.00
2019-06-08T14:53:58.692Z,60.00
2019-06-08T14:56:29.667Z,60.00
2019-06-08T14:58:57.608Z,60.40
2019-06-08T15:01:29.696Z,60.80
2019-06-08T15:03:58.584Z,61.80
2019-06-08T15:06:31.066Z,62.20
2019-06-08T15:08:58.231Z,64.00
2019-06-08T15:11:28.825Z,65.00
2019-06-08T15:13:58.651Z,65.80
2019-06-08T15:16:30.122Z,65.70
2019-06-08T15:19:00.093Z,65.90
2019-06-08T15:21:30.123Z,65.70
2019-06-08T15:23:57.895Z,66.60
2019-06-08T15:26:35.895Z,66.40
2019-06-08T15:28:58.592Z,67.70
2019-06-08T15:31:29.519Z,68.00
2019-06-08T15:33:56.624Z,67.50
2019-06-08T15:36:25.194Z,71.00
2019-06-08T15:38:53.774Z,70.10
2019-06-08T15:41:24.270Z,72.10
2019-06-08T15:43:52.180Z,71.10
2019-06-08T15:46:20.623Z,71.20
2019-06-08T15:48:48.996Z,68.80
2019-06-08T15:51:17.416Z,67.10
2019-06-08T15:53:47.741Z,67.70
2019-06-08T15:56:15.828Z,67.70
2019-06-08T15:58:44.260Z,69.60
2019-06-08T16:01:14.732Z,70.60
2019-06-08T16:03:42.791Z,69.40
2019-06-08T16:06:11.405Z,69.80
2019-06-08T16:08:39.969Z,70.90
2019-06-08T16:11:08.575Z,71.20
2019-06-08T16:13:36.956Z,71.40
2019-06-08T16:16:05.512Z,72.00
2019-06-08T16:18:33.904Z,72.30
2019-06-08T16:21:02.316Z,72.50
2019-06-08T16:23:31.832Z,72.60
2019-06-08T16:26:00.336Z,73.10
2019-06-08T16:28:29.839Z,72.80
2019-06-08T16:30:58.255Z,72.20
2019-06-08T16:33:27.302Z,72.10
2019-06-08T16:35:56.114Z,72.40
2019-06-08T16:38:24.585Z,71.50
2019-06-08T16:40:53.812Z,69.80
2019-06-08T16:43:22.414Z,70.00
2019-06-08T16:45:51.128Z,69.30
2019-06-08T16:48:19.800Z,68.40
2019-06-08T16:50:48.366Z,68.40
2019-06-08T16:53:16.975Z,68.30
2019-06-08T16:55:45.433Z,68.10
2019-06-08T16:58:13.777Z,68.00
2019-06-08T17:00:42.464Z,68.50
2019-06-08T17:03:10.950Z,68.60
2019-06-08T17:05:39.366Z,68.60
2019-06-08T17:08:07.724Z,68.60
2019-06-08T17:10:36.897Z,68.60
2019-06-08T17:13:05.432Z,68.70
2019-06-08T17:15:34.108Z,69.30
2019-06-08T17:18:02.857Z,69.40
2019-06-08T17:20:32.057Z,69.20
2019-06-08T17:23:00.520Z,68.30
2019-06-08T17:25:28.911Z,67.00
2019-06-08T17:27:58.580Z,66.10
2019-06-08T17:30:26.916Z,65.30
2019-06-08T17:32:55.312Z,65.50
2019-06-08T17:35:23.696Z,63.60
2019-06-08T17:37:52.091Z,64.60
2019-06-08T17:40:20.500Z,64.90
2019-06-08T17:42:48.959Z,64.10
2019-06-08T17:45:17.340Z,63.20
2019-06-08T17:47:45.804Z,62.80
2019-06-08T17:50:14.277Z,63.10
2019-06-08T17:52:43.066Z,62.50
2019-06-08T17:55:11.724Z,62.30
2019-06-08T17:57:48.515Z,61.60
2019-06-08T18:00:11.982Z,61.10
2019-06-08T18:02:43.375Z,61.40
2019-06-08T18:05:10.961Z,61.30
2019-06-08T18:07:41.969Z,61.10
2019-06-08T18:10:10.098Z,61.20
2019-06-08T18:12:41.193Z,61.90
2019-06-08T18:15:09.098Z,62.10
2019-06-08T18:17:40.147Z,61.60
2019-06-08T18:20:13.236Z,61.30
2019-06-08T18:22:44.416Z,61.40
2019-06-08T18:25:11.721Z,61.50
2019-06-08T18:27:42.395Z,61.30
2019-06-08T18:30:11.728Z,61.40
2019-06-08T18:32:41.831Z,61.50
2019-06-08T18:35:10.544Z,62.00
2019-06-08T18:37:40.907Z,61.90
2019-06-08T18:40:10.052Z,61.30
2019-06-08T18:42:40.014Z,62.10
2019-06-08T18:45:08.525Z,62.60
2019-06-08T18:47:38.794Z,62.90
2019-06-08T18:50:09.056Z,62.80
2019-06-08T18:52:40.574Z,63.10
2019-06-08T18:55:08.331Z,63.20
2019-06-08T18:57:38.462Z,63.70
2019-06-08T19:00:11.803Z,63.50
2019-06-08T19:02:41.974Z,63.70
2019-06-08T19:05:10.252Z,63.90
2019-06-08T19:07:39.146Z,64.00
2019-06-08T19:10:07.667Z,63.80
2019-06-08T19:12:38.351Z,64.30
2019-06-08T19:15:11.094Z,64.10
2019-06-08T19:17:39.754Z,63.60
2019-06-08T19:20:06.659Z,63.50
2019-06-08T19:22:35.076Z,64.20
2019-06-08T19:25:04.307Z,64.70
2019-06-08T19:27:32.681Z,64.30
2019-06-08T19:30:01.073Z,64.20
2019-06-08T19:32:29.512Z,64.30
2019-06-08T19:34:58.106Z,64.20
2019-06-08T19:37:28.057Z,64.30
2019-06-08T19:39:57.700Z,64.20
2019-06-08T19:42:37.077Z,65.10
2019-06-08T19:45:04.871Z,65.60
2019-06-08T19:47:27.282Z,65.40
2019-06-08T19:49:57.758Z,65.20
2019-06-08T19:52:26.148Z,65.20
2019-06-08T19:54:54.721Z,63.80
2019-06-08T19:57:23.152Z,64.20
2019-06-08T19:59:51.524Z,63.70
2019-06-08T20:02:19.930Z,62.30
2019-06-08T20:04:48.928Z,60.30
2019-06-08T20:07:17.844Z,59.70
2019-06-08T20:09:48.183Z,58.70
2019-06-08T20:12:18.455Z,57.50
2019-06-08T20:14:48.426Z,57.50
2019-06-08T20:17:17.214Z,56.80
2019-06-08T20:19:48.010Z,56.50
2019-06-08T20:22:18.301Z,56.30
2019-06-08T20:24:51.445Z,56.80
2019-06-08T20:27:17.311Z,56.70
2019-06-08T20:29:47.863Z,56.50
2019-06-08T20:32:18.008Z,56.00
2019-06-08T20:34:49.040Z,56.40
2019-06-08T20:37:17.564Z,56.70
2019-06-08T20:39:59.276Z,56.40
2019-06-08T20:42:17.342Z,56.50
2019-06-08T20:44:46.675Z,56.50
2019-06-08T20:47:17.916Z,56.60
2019-06-08T20:49:48.905Z,56.70
2019-06-08T20:52:17.790Z,56.90
2019-06-08T20:54:48.966Z,56.80
2019-06-08T20:57:17.034Z,57.20
2019-06-08T20:59:45.692Z,57.30
2019-06-08T21:02:14.082Z,57.00
2019-06-08T21:04:44.460Z,57.20
2019-06-08T21:07:12.528Z,57.60
2019-06-08T21:09:40.904Z,57.60
2019-06-08T21:12:09.281Z,57.10
2019-06-08T21:14:37.989Z,57.80
2019-06-08T21:17:07.605Z,57.60
2019-06-08T21:19:36.161Z,58.10
2019-06-08T21:22:04.552Z,58.10
2019-06-08T21:24:32.993Z,58.00
2019-06-08T21:27:01.394Z,58.40
2019-06-08T21:29:46.892Z,58.30
2019-06-08T21:32:02.283Z,58.30
2019-06-08T21:34:29.856Z,58.70
2019-06-08T21:37:00.670Z,58.70
2019-06-08T21:39:28.486Z,58.90
2019-06-08T21:42:01.344Z,59.20
2019-06-08T21:44:27.850Z,59.40
2019-06-08T21:47:00.779Z,59.50
2019-06-08T21:49:27.681Z,59.60
2019-06-08T21:51:58.854Z,59.70
2019-06-08T21:54:27.248Z,60.40
2019-06-08T21:56:58.912Z,60.20
2019-06-08T21:59:25.683Z,60.00
2019-06-08T22:01:55.054Z,60.20
2019-06-08T22:04:24.106Z,60.30
2019-06-08T22:06:52.513Z,61.30
2019-06-08T22:09:20.904Z,60.40
2019-06-08T22:11:50.934Z,60.40
2019-06-08T22:14:19.352Z,60.30
2019-06-08T22:16:47.784Z,60.80
2019-06-08T22:19:17.939Z,60.70
2019-06-08T22:21:48.004Z,61.10
2019-06-08T22:24:17.169Z,60.70
2019-06-08T22:26:45.620Z,61.30
2019-06-08T22:29:14.023Z,61.60
2019-06-08T22:31:42.402Z,62.00
2019-06-08T22:34:10.804Z,62.20
2019-06-08T22:36:39.216Z,62.20
2019-06-08T22:39:08.262Z,62.00
2019-06-08T22:41:37.267Z,62.10
2019-06-08T22:44:08.102Z,62.40
2019-06-08T22:46:37.526Z,62.80
2019-06-08T22:49:07.833Z,62.60
2019-06-08T22:51:38.078Z,63.20
2019-06-08T22:54:08.006Z,62.60
2019-06-08T22:56:37.222Z,62.90
2019-06-08T22:59:06.795Z,63.00
2019-06-08T23:01:38.220Z,62.90
2019-06-08T23:04:08.708Z,63.60
2019-06-08T23:06:38.472Z,63.30
2019-06-08T23:09:08.703Z,63.70
2019-06-08T23:11:37.675Z,63.40
2019-06-08T23:14:12.766Z,63.30
2019-06-08T23:16:36.112Z,63.20
2019-06-08T23:19:05.189Z,62.80
2019-06-08T23:21:33.604Z,62.90
2019-06-08T23:24:02.869Z,63.20
2019-06-08T23:26:32.068Z,62.80
2019-06-08T23:29:00.448Z,62.90
2019-06-08T23:31:29.179Z,63.30
2019-06-08T23:34:00.329Z,62.70
2019-06-08T23:36:46.514Z,62.60
2019-06-08T23:38:59.000Z,62.90
2019-06-08T23:41:27.594Z,63.40
2019-06-08T23:43:57.368Z,63.20
2019-06-08T23:46:27.340Z,63.20
2019-06-08T23:48:58.912Z,63.40
2019-06-08T23:51:27.518Z,63.70
2019-06-08T23:53:58.298Z,63.40
2019-06-08T23:56:27.788Z,63.30
2019-06-08T23:58:56.334Z,63.60
